createdAt,value
2022-08-14T00:01:58.439Z,2.55
2022-08-14T00:04:35.218Z,2.85
2022-08-14T00:07:13.960Z,2.75
2022-08-14T00:10:01.911Z,2.78
2022-08-14T00:12:33.507Z,2.70
2022-08-14T00:15:08.951Z,2.63
2022-08-14T00:17:38.209Z,2.65
2022-08-14T00:20:23.354Z,2.58
2022-08-14T00:22:57.839Z,2.58
2022-08-14T00:25:41.533Z,2.80
2022-08-14T00:28:15.640Z,2.78
2022-08-14T00:30:46.547Z,2.50
2022-08-14T00:33:16.148Z,2.70
2022-08-14T00:36:34.962Z,2.85
2022-08-14T00:38:34.604Z,2.65
2022-08-14T00:41:04.040Z,2.88
2022-08-14T00:43:32.543Z,2.67
2022-08-14T00:46:05.219Z,2.85
2022-08-14T00:48:36.792Z,2.92
2022-08-14T00:51:09.018Z,2.90
2022-08-14T00:53:43.004Z,3.10
2022-08-14T00:56:15.590Z,2.80
2022-08-14T00:58:45.123Z,3.17
2022-08-14T01:01:18.749Z,3.08
2022-08-14T01:03:52.603Z,3.20
2022-08-14T01:06:21.502Z,3.00
2022-08-14T01:08:59.548Z,2.90
2022-08-14T01:11:35.521Z,3.10
2022-08-14T01:14:25.366Z,3.10
2022-08-14T01:16:55.578Z,3.10
2022-08-14T01:19:41.587Z,3.15
2022-08-14T01:22:12.591Z,3.60
2022-08-14T01:24:43.547Z,3.03
2022-08-14T01:27:18.008Z,3.13
2022-08-14T01:30:03.265Z,3.00
2022-08-14T01:32:45.246Z,3.30
2022-08-14T01:36:03.587Z,3.30
2022-08-14T01:38:09.277Z,3.30
2022-08-14T01:40:41.967Z,3.15
2022-08-14T01:43:18.738Z,3.33
2022-08-14T01:46:06.493Z,2.95
2022-08-14T01:48:37.015Z,3.42
2022-08-14T01:51:19.551Z,3.42
2022-08-14T01:53:55.583Z,3.50
2022-08-14T01:56:37.342Z,3.67
2022-08-14T01:59:09.703Z,3.75
2022-08-14T02:01:41.992Z,3.50
2022-08-14T02:04:40.449Z,3.55
2022-08-14T02:07:09.734Z,3.72
2022-08-14T02:09:45.007Z,3.83
2022-08-14T02:12:29.121Z,3.60
2022-08-14T02:15:00.336Z,4.18
2022-08-14T02:17:30.652Z,3.80
2022-08-14T02:19:58.906Z,3.58
2022-08-14T02:22:28.771Z,3.53
2022-08-14T02:25:02.081Z,4.10
2022-08-14T02:28:22.294Z,4.00
2022-08-14T02:30:18.110Z,4.13
2022-08-14T02:32:45.975Z,3.90
2022-08-14T02:35:18.491Z,4.07
2022-08-14T02:37:47.453Z,3.70
2022-08-14T02:40:18.281Z,4.15
2022-08-14T02:42:55.243Z,4.10
2022-08-14T02:45:33.271Z,4.20
2022-08-14T02:48:10.074Z,4.13
2022-08-14T02:50:39.942Z,4.18
2022-08-14T02:53:08.688Z,4.20
2022-08-14T02:55:40.153Z,3.92
2022-08-14T02:58:08.303Z,4.37
2022-08-14T03:00:40.161Z,4.25
2022-08-14T03:03:08.652Z,4.40
2022-08-14T03:05:40.969Z,4.82
2022-08-14T03:08:15.216Z,4.40
2022-08-14T03:10:49.359Z,4.43
2022-08-14T03:13:19.353Z,4.63
2022-08-14T03:15:49.189Z,4.80
2022-08-14T03:18:31.456Z,4.53
2022-08-14T03:21:03.080Z,4.60
2022-08-14T03:23:38.131Z,4.80
2022-08-14T03:26:12.719Z,4.75
2022-08-14T03:28:47.884Z,4.60
2022-08-14T03:31:16.574Z,4.70
2022-08-14T03:33:44.985Z,4.82
2022-08-14T03:37:51.281Z,4.85
2022-08-14T03:39:21.823Z,4.75
2022-08-14T03:41:56.157Z,4.80
2022-08-14T03:45:20.251Z,5.10
2022-08-14T03:47:15.665Z,4.90
2022-08-14T03:49:44.798Z,4.82
2022-08-14T03:52:37.963Z,5.20
2022-08-14T03:55:07.498Z,5.25
2022-08-14T03:57:37.259Z,5.30
2022-08-14T04:00:13.788Z,5.45
2022-08-14T04:02:57.094Z,5.13
2022-08-14T04:05:26.455Z,5.20
2022-08-14T04:08:08.804Z,5.30
2022-08-14T04:10:42.169Z,5.57
2022-08-14T04:13:11.506Z,5.38
2022-08-14T04:15:56.292Z,5.70
2022-08-14T04:18:27.312Z,5.40
2022-08-14T04:20:55.889Z,5.30
2022-08-14T04:23:29.385Z,5.70
2022-08-14T04:26:01.190Z,5.50
2022-08-14T04:29:08.502Z,5.70
2022-08-14T04:31:24.811Z,6.03
2022-08-14T04:33:53.353Z,5.90
2022-08-14T04:36:21.609Z,6.00
2022-08-14T04:39:09.812Z,5.88
2022-08-14T04:42:09.267Z,5.90
2022-08-14T04:44:41.210Z,6.17
2022-08-14T04:47:26.500Z,6.50
2022-08-14T04:49:59.265Z,6.00
2022-08-14T04:52:31.281Z,6.38
2022-08-14T04:55:06.094Z,6.20
2022-08-14T04:57:34.788Z,6.10
2022-08-14T05:00:04.756Z,6.28
2022-08-14T05:02:36.789Z,6.00
2022-08-14T05:05:04.937Z,6.05
2022-08-14T05:07:46.496Z,6.07
2022-08-14T05:10:25.931Z,6.20
2022-08-14T05:13:11.831Z,6.25
2022-08-14T05:15:44.762Z,6.15
2022-08-14T05:18:52.918Z,6.07
2022-08-14T05:21:57.066Z,6.25
2022-08-14T05:23:55.466Z,6.32
2022-08-14T05:26:23.207Z,6.50
2022-08-14T05:28:51.191Z,6.28
2022-08-14T05:31:21.139Z,6.40
2022-08-14T05:33:56.655Z,6.47
2022-08-14T05:36:25.209Z,6.70
2022-08-14T05:38:54.503Z,6.50
2022-08-14T05:41:23.300Z,6.70
2022-08-14T05:44:01.959Z,6.90
2022-08-14T05:46:31.159Z,6.70
2022-08-14T05:48:59.785Z,6.70
2022-08-14T05:51:28.479Z,6.97
2022-08-14T05:54:01.425Z,6.87
2022-08-14T05:56:37.882Z,6.68
2022-08-14T05:59:05.904Z,7.00
2022-08-14T06:01:36.913Z,7.10
2022-08-14T06:04:05.297Z,7.30
2022-08-14T06:06:38.088Z,7.00
2022-08-14T06:09:10.060Z,6.70
2022-08-14T06:11:37.954Z,6.63
2022-08-14T06:14:12.338Z,6.80
2022-08-14T06:16:52.944Z,6.45
2022-08-14T06:19:23.242Z,6.70
2022-08-14T06:21:58.458Z,6.47
2022-08-14T06:24:30.494Z,6.70
2022-08-14T06:27:04.715Z,7.07
2022-08-14T06:29:35.030Z,6.70
2022-08-14T06:32:38.453Z,6.40
2022-08-14T06:35:03.523Z,6.78
2022-08-14T06:37:41.595Z,7.03
2022-08-14T06:40:25.703Z,7.28
2022-08-14T06:42:57.160Z,6.97
2022-08-14T06:45:28.604Z,6.70
2022-08-14T06:47:59.094Z,7.20
2022-08-14T06:50:28.619Z,7.80
2022-08-14T06:52:58.514Z,7.30
2022-08-14T06:55:28.243Z,7.63
2022-08-14T06:57:58.102Z,8.52
2022-08-14T07:00:31.195Z,7.95
2022-08-14T07:08:31.022Z,9.60
2022-08-14T07:11:00.983Z,9.70
2022-08-14T07:13:30.641Z,9.25
2022-08-14T07:16:00.530Z,9.25
2022-08-14T07:18:36.437Z,9.75
2022-08-14T07:21:07.324Z,9.68
2022-08-14T07:23:35.204Z,9.63
2022-08-14T07:26:10.261Z,10.55
2022-08-14T07:28:43.006Z,10.10
2022-08-14T07:31:12.915Z,9.25
2022-08-14T07:33:49.993Z,9.88
2022-08-14T07:36:27.930Z,9.35
2022-08-14T07:38:59.211Z,9.45
2022-08-14T07:41:31.355Z,9.23
2022-08-14T07:44:29.039Z,9.40
2022-08-14T07:46:51.204Z,8.70
2022-08-14T07:49:24.289Z,8.73
2022-08-14T07:51:52.287Z,9.00
2022-08-14T07:54:23.368Z,8.95
2022-08-14T07:56:59.965Z,8.50
2022-08-14T07:59:42.533Z,8.15
2022-08-14T08:02:17.095Z,8.40
2022-08-14T08:04:54.834Z,7.78
2022-08-14T08:07:23.632Z,7.88
2022-08-14T08:09:56.592Z,8.40
2022-08-14T08:12:30.061Z,8.02
2022-08-14T08:15:03.385Z,7.68
2022-08-14T08:17:38.776Z,8.50
2022-08-14T08:20:13.921Z,8.13
2022-08-14T08:25:18.157Z,8.68
2022-08-14T08:27:56.317Z,8.45
2022-08-14T08:30:24.939Z,8.13
2022-08-14T08:32:54.398Z,8.00
2022-08-14T08:35:25.644Z,6.90
2022-08-14T08:39:15.363Z,7.47
2022-08-14T08:41:03.262Z,7.50
2022-08-14T08:43:34.282Z,7.50
2022-08-14T08:46:04.671Z,7.80
2022-08-14T08:48:52.130Z,7.10
2022-08-14T08:51:25.181Z,7.43
2022-08-14T08:54:01.052Z,7.53
2022-08-14T08:56:40.924Z,7.78
2022-08-14T08:59:22.102Z,7.13
2022-08-14T09:01:58.655Z,6.95
2022-08-14T09:04:29.890Z,6.85
2022-08-14T09:07:09.944Z,6.72
2022-08-14T09:09:56.889Z,5.65
2022-08-14T09:12:31.345Z,6.40
2022-08-14T09:15:02.173Z,6.20
2022-08-14T09:17:30.183Z,6.05
2022-08-14T09:20:01.743Z,6.00
2022-08-14T09:22:47.360Z,5.90
2022-08-14T09:25:16.395Z,5.55
2022-08-14T09:27:44.371Z,5.80
2022-08-14T09:30:32.049Z,4.80
2022-08-14T09:33:13.066Z,5.00
2022-08-14T09:35:56.434Z,5.10
2022-08-14T09:38:40.529Z,5.43
2022-08-14T09:41:19.593Z,5.13
2022-08-14T09:43:56.221Z,5.07
2022-08-14T09:46:27.647Z,5.30
2022-08-14T09:49:04.681Z,4.88
2022-08-14T09:51:44.971Z,5.35
2022-08-14T09:54:23.548Z,5.07
2022-08-14T09:56:59.403Z,4.43
2022-08-14T09:59:33.665Z,4.30
2022-08-14T10:02:07.147Z,4.22
2022-08-14T10:04:42.283Z,3.75
2022-08-14T10:07:13.683Z,4.28
2022-08-14T10:10:00.316Z,4.10
2022-08-14T10:12:48.418Z,4.38
2022-08-14T10:15:20.514Z,4.38
2022-08-14T10:17:49.544Z,4.50
2022-08-14T10:20:39.839Z,4.65
2022-08-14T10:23:16.446Z,5.00
2022-08-14T10:25:51.026Z,4.60
2022-08-14T10:29:03.577Z,4.90
2022-08-14T10:31:19.905Z,4.53
2022-08-14T10:34:13.014Z,5.13
2022-08-14T10:36:44.843Z,5.00
2022-08-14T10:39:18.679Z,5.32
2022-08-14T10:41:49.189Z,4.32
2022-08-14T10:44:24.920Z,3.72
2022-08-14T10:47:40.745Z,3.90
2022-08-14T10:49:58.138Z,4.10
2022-08-14T10:52:31.643Z,4.88
2022-08-14T10:55:13.939Z,3.85
2022-08-14T10:57:51.498Z,4.15
2022-08-14T11:00:29.439Z,4.65
2022-08-14T11:03:09.467Z,4.18
2022-08-14T11:05:42.678Z,4.47
2022-08-14T11:08:12.749Z,4.32
2022-08-14T11:10:45.129Z,4.80
2022-08-14T11:13:21.181Z,4.00
2022-08-14T11:15:52.825Z,3.80
2022-08-14T11:18:32.386Z,3.92
2022-08-14T11:21:06.880Z,4.00
2022-08-14T11:23:39.829Z,3.75
2022-08-14T11:26:13.422Z,3.90
2022-08-14T11:28:46.297Z,3.42
2022-08-14T11:31:17.197Z,3.30
2022-08-14T11:33:49.143Z,3.20
2022-08-14T11:36:18.286Z,2.92
2022-08-14T11:38:48.201Z,3.10
2022-08-14T11:41:17.550Z,3.03
2022-08-14T11:43:57.743Z,3.30
2022-08-14T11:46:30.217Z,3.00
2022-08-14T11:49:06.750Z,2.83
2022-08-14T11:51:52.916Z,2.67
2022-08-14T11:54:34.281Z,3.00
2022-08-14T11:57:02.464Z,2.65
2022-08-14T11:59:34.287Z,2.90
2022-08-14T12:03:01.274Z,2.72
2022-08-14T12:04:58.062Z,2.53
2022-08-14T12:07:26.014Z,2.70
2022-08-14T12:09:55.956Z,2.88
2022-08-14T12:12:35.072Z,2.50
2022-08-14T12:15:07.115Z,2.72
2022-08-14T12:17:49.664Z,2.65
2022-08-14T12:20:30.255Z,2.35
2022-08-14T12:23:01.539Z,2.70
2022-08-14T12:25:30.166Z,3.00
2022-08-14T12:28:05.497Z,2.72
2022-08-14T12:30:39.612Z,2.80
2022-08-14T12:33:21.995Z,2.85
2022-08-14T12:35:57.494Z,2.58
2022-08-14T12:38:37.989Z,2.97
2022-08-14T12:41:11.891Z,2.70
2022-08-14T12:43:51.537Z,2.63
2022-08-14T12:46:28.670Z,2.78
2022-08-14T12:48:58.619Z,2.88
2022-08-14T12:51:30.894Z,2.47
2022-08-14T12:54:00.075Z,2.60
2022-08-14T12:56:33.225Z,2.45
2022-08-14T12:59:03.119Z,2.53
2022-08-14T13:01:59.390Z,2.85
2022-08-14T13:04:22.909Z,2.47
2022-08-14T13:06:52.675Z,2.50
2022-08-14T13:09:20.870Z,2.75
2022-08-14T13:11:58.890Z,2.63
2022-08-14T13:14:48.868Z,2.70
2022-08-14T13:17:18.683Z,2.50
2022-08-14T13:19:47.760Z,2.25
2022-08-14T13:22:28.747Z,2.55
2022-08-14T13:25:00.954Z,2.45
2022-08-14T13:27:33.987Z,2.90
2022-08-14T13:30:10.742Z,2.60
2022-08-14T13:32:53.480Z,2.35
2022-08-14T13:35:22.561Z,2.60
2022-08-14T13:37:52.101Z,2.58
2022-08-14T13:40:26.729Z,2.42
2022-08-14T13:42:57.055Z,2.40
2022-08-14T13:45:34.166Z,2.20
2022-08-14T13:48:32.097Z,2.30
2022-08-14T13:51:05.239Z,2.60
2022-08-14T13:54:06.921Z,2.33
2022-08-14T13:56:37.134Z,2.38
2022-08-14T13:59:06.334Z,2.50
2022-08-14T14:01:43.568Z,2.38
2022-08-14T14:04:18.913Z,2.83
2022-08-14T14:06:51.191Z,2.42
2022-08-14T14:09:32.611Z,2.47
2022-08-14T14:12:06.230Z,2.40
2022-08-14T14:14:51.050Z,2.60
2022-08-14T14:17:24.331Z,2.30
2022-08-14T14:19:53.669Z,2.40
2022-08-14T14:22:36.128Z,2.47
2022-08-14T14:25:10.083Z,2.28
2022-08-14T14:27:42.156Z,2.15
2022-08-14T14:30:46.200Z,2.25
2022-08-14T14:33:04.310Z,2.20
2022-08-14T14:35:39.589Z,2.17
2022-08-14T14:38:09.676Z,2.30
2022-08-14T14:40:52.967Z,2.50
2022-08-14T14:43:26.213Z,2.38
2022-08-14T14:45:55.658Z,2.47
2022-08-14T14:48:28.202Z,2.60
2022-08-14T14:51:01.270Z,2.55
2022-08-14T14:53:39.127Z,2.40
2022-08-14T14:56:47.552Z,2.40
2022-08-14T14:58:57.502Z,2.05
2022-08-14T15:01:26.166Z,2.40
2022-08-14T15:03:55.573Z,2.30
2022-08-14T15:06:30.253Z,2.28
2022-08-14T15:09:00.346Z,2.15
2022-08-14T15:11:30.042Z,2.47
2022-08-14T15:13:58.442Z,2.22
2022-08-14T15:16:28.734Z,2.35
2022-08-14T15:18:56.475Z,2.30
2022-08-14T15:21:26.792Z,2.20
2022-08-14T15:23:55.654Z,2.33
2022-08-14T15:26:31.598Z,2.20
2022-08-14T15:29:02.896Z,2.38
2022-08-14T15:31:34.902Z,2.30
2022-08-14T15:34:43.614Z,2.20
2022-08-14T15:37:04.358Z,2.10
2022-08-14T15:39:33.964Z,2.50
2022-08-14T15:42:14.456Z,2.33
2022-08-14T15:44:57.909Z,2.25
2022-08-14T15:47:30.007Z,2.55
2022-08-14T15:50:00.238Z,2.20
2022-08-14T15:52:42.400Z,2.10
2022-08-14T15:55:14.895Z,2.22
2022-08-14T15:58:01.981Z,2.35
2022-08-14T16:00:49.376Z,2.00
2022-08-14T16:03:27.025Z,2.30
2022-08-14T16:06:03.226Z,2.10
2022-08-14T16:08:32.506Z,2.22
2022-08-14T16:11:02.176Z,2.20
2022-08-14T16:13:38.908Z,2.00
2022-08-14T16:16:49.392Z,2.50
2022-08-14T16:18:58.949Z,2.30
2022-08-14T16:21:29.415Z,2.17
2022-08-14T16:24:01.695Z,2.05
2022-08-14T16:26:32.960Z,2.20
2022-08-14T16:29:04.873Z,2.38
2022-08-14T16:31:35.912Z,2.28
2022-08-14T16:34:45.404Z,2.30
2022-08-14T16:36:53.690Z,2.28
2022-08-14T16:39:24.172Z,2.38
2022-08-14T16:41:52.836Z,2.20
2022-08-14T16:44:31.716Z,2.35
2022-08-14T16:47:03.462Z,2.25
2022-08-14T16:50:02.499Z,2.20
2022-08-14T16:52:25.840Z,2.65
2022-08-14T16:55:11.759Z,2.08
2022-08-14T16:57:49.936Z,2.40
2022-08-14T17:00:28.889Z,2.20
2022-08-14T17:03:04.555Z,2.30
2022-08-14T17:05:39.245Z,2.20
2022-08-14T17:08:32.857Z,1.95
2022-08-14T17:11:10.633Z,2.28
2022-08-14T17:13:59.469Z,2.10
2022-08-14T17:16:32.989Z,2.05
2022-08-14T17:19:05.376Z,2.00
2022-08-14T17:21:37.906Z,2.28
2022-08-14T17:24:56.644Z,2.70
2022-08-14T17:27:03.927Z,2.35
2022-08-14T17:29:34.937Z,2.20
2022-08-14T17:32:29.329Z,2.65
2022-08-14T17:35:10.574Z,2.67
2022-08-14T17:37:45.129Z,2.30
2022-08-14T17:40:16.438Z,2.13
2022-08-14T17:42:58.894Z,2.60
2022-08-14T17:45:46.708Z,2.47
2022-08-14T17:49:14.693Z,2.10
2022-08-14T17:51:24.185Z,2.50
2022-08-14T17:54:02.944Z,3.35
2022-08-14T17:56:33.340Z,2.85
2022-08-14T17:59:07.338Z,2.80
2022-08-14T18:01:38.922Z,2.45
2022-08-14T18:04:24.676Z,3.25
2022-08-14T18:06:58.514Z,3.20
2022-08-14T18:09:38.717Z,2.78
2022-08-14T18:12:09.838Z,2.67
2022-08-14T18:15:06.687Z,2.72
2022-08-14T18:17:50.735Z,2.72
2022-08-14T18:21:41.536Z,2.45
2022-08-14T18:23:13.035Z,2.75
2022-08-14T18:25:48.053Z,2.80
2022-08-14T18:28:37.895Z,2.70
2022-08-14T18:31:42.104Z,2.80
2022-08-14T18:34:30.843Z,2.53
2022-08-14T18:37:09.647Z,2.50
2022-08-14T18:40:03.047Z,2.50
2022-08-14T18:42:45.914Z,2.85
2022-08-14T18:45:18.495Z,2.70
2022-08-14T18:48:06.913Z,3.00
2022-08-14T18:50:52.380Z,2.95
2022-08-14T18:53:24.950Z,2.95
2022-08-14T18:56:00.106Z,2.97
2022-08-14T18:58:48.571Z,2.60
2022-08-14T19:01:26.652Z,2.70
2022-08-14T19:04:02.143Z,3.10
2022-08-14T19:06:44.724Z,2.65
2022-08-14T19:09:53.219Z,2.55
2022-08-14T19:13:00.482Z,2.22
2022-08-14T19:15:31.295Z,2.20
2022-08-14T19:18:14.893Z,2.10
2022-08-14T19:20:55.357Z,2.15
2022-08-14T19:23:42.655Z,2.13
2022-08-14T19:26:34.695Z,1.95
2022-08-14T19:29:37.457Z,2.20
2022-08-14T19:32:38.928Z,1.85
2022-08-14T19:35:49.889Z,1.63
2022-08-14T19:38:51.954Z,1.90
2022-08-14T19:41:25.059Z,1.67
2022-08-14T19:44:10.536Z,1.60
2022-08-14T19:47:02.599Z,2.00
2022-08-14T19:50:24.379Z,1.83
2022-08-14T19:52:25.378Z,1.70
2022-08-14T19:54:54.153Z,1.90
2022-08-14T19:57:24.571Z,1.70
2022-08-14T20:00:01.823Z,2.00
2022-08-14T20:02:32.213Z,1.90
2022-08-14T20:05:07.918Z,1.70
2022-08-14T20:08:00.640Z,2.10
2022-08-14T20:11:03.251Z,1.63
2022-08-14T20:13:32.219Z,2.10
2022-08-14T20:16:11.831Z,1.85
2022-08-14T20:18:48.979Z,1.65
2022-08-14T20:21:18.310Z,1.80
2022-08-14T20:23:48.008Z,1.83
2022-08-14T20:26:31.918Z,1.90
2022-08-14T20:29:07.336Z,1.98
2022-08-14T20:31:38.297Z,1.70
2022-08-14T20:34:18.933Z,1.67
2022-08-14T20:37:22.479Z,1.52
2022-08-14T20:39:54.229Z,1.67
2022-08-14T20:42:43.584Z,1.65
2022-08-14T20:45:19.971Z,1.50
2022-08-14T20:47:51.016Z,1.67
2022-08-14T20:50:29.140Z,1.60
2022-08-14T20:52:57.912Z,1.70
2022-08-14T20:55:30.002Z,1.75
2022-08-14T20:57:59.174Z,1.60
2022-08-14T21:00:36.586Z,1.83
2022-08-14T21:03:33.231Z,1.88
2022-08-14T21:06:03.393Z,1.80
2022-08-14T21:08:47.751Z,2.03
2022-08-14T21:11:18.692Z,2.25
2022-08-14T21:14:21.071Z,2.20
2022-08-14T21:16:39.332Z,2.40
2022-08-14T21:19:16.322Z,2.78
2022-08-14T21:21:45.319Z,2.20
2022-08-14T21:24:39.500Z,2.38
2022-08-14T21:27:21.981Z,2.30
2022-08-14T21:29:55.179Z,2.20
2022-08-14T21:32:33.986Z,2.28
2022-08-14T21:35:08.011Z,2.25
2022-08-14T21:37:36.470Z,2.38
2022-08-14T21:40:09.812Z,2.30
2022-08-14T21:42:53.161Z,2.38
2022-08-14T21:45:21.323Z,2.47
2022-08-14T21:47:49.591Z,1.92
2022-08-14T21:50:56.221Z,2.30
2022-08-14T21:53:07.870Z,2.33
2022-08-14T21:55:36.466Z,2.70
2022-08-14T21:58:51.769Z,2.47
2022-08-14T22:00:55.668Z,2.28
2022-08-14T22:03:26.223Z,2.70
2022-08-14T22:06:04.738Z,2.53
2022-08-14T22:08:38.322Z,2.33
2022-08-14T22:11:07.350Z,2.47
2022-08-14T22:13:46.495Z,2.60
2022-08-14T22:17:01.807Z,2.70
2022-08-14T22:19:02.810Z,2.42
2022-08-14T22:21:33.427Z,2.65
2022-08-14T22:24:02.070Z,2.55
2022-08-14T22:26:44.336Z,2.40
2022-08-14T22:29:12.638Z,2.60
2022-08-14T22:31:41.274Z,3.00
2022-08-14T22:34:15.172Z,2.72
2022-08-14T22:36:50.480Z,2.70
2022-08-14T22:39:20.315Z,2.88
2022-08-14T22:42:20.874Z,3.00
2022-08-14T22:44:50.318Z,2.90
2022-08-14T22:47:19.358Z,2.80
2022-08-14T22:50:31.238Z,3.00
2022-08-14T22:52:49.184Z,2.75
2022-08-14T22:55:17.563Z,2.85
2022-08-14T22:57:45.389Z,2.40
2022-08-14T23:00:20.416Z,2.95
2022-08-14T23:02:56.618Z,2.72
2022-08-14T23:05:38.838Z,2.60
2022-08-14T23:08:58.608Z,2.88
2022-08-14T23:10:59.604Z,3.00
2022-08-14T23:13:27.286Z,2.92
2022-08-14T23:15:59.024Z,3.10
2022-08-14T23:18:29.662Z,2.90
2022-08-14T23:20:57.861Z,2.63
2022-08-14T23:23:27.006Z,3.15
2022-08-14T23:25:59.599Z,2.80
2022-08-14T23:28:34.041Z,2.97
2022-08-14T23:31:34.195Z,3.00
2022-08-14T23:34:06.995Z,3.10
2022-08-14T23:36:38.122Z,3.03
2022-08-14T23:39:29.614Z,2.90
2022-08-14T23:42:02.536Z,3.20
2022-08-14T23:44:35.081Z,3.10
2022-08-14T23:47:10.794Z,3.00
2022-08-14T23:49:59.942Z,3.17
2022-08-14T23:52:56.032Z,3.28
2022-08-14T23:55:17.310Z,2.92
2022-08-14T23:57:57.861Z,3.22
